sensor_id;sensor_type;location;lat;lon;timestamp;P1;durP1;ratioP1;P2;durP2;ratioP2
14346;SDS011;7257;52.158;9.968;2022-11-12T00:00:14;4.53;;;2.72;;
14346;SDS011;7257;52.158;9.968;2022-11-12T00:00:36;4.30;;;2.92;;
14346;SDS011;7257;52.158;9.968;2022-11-12T00:00:58;4.93;;;3.30;;
14346;SDS011;7257;52.158;9.968;2022-11-12T00:01:19;4.90;;;3.25;;
14346;SDS011;7257;52.158;9.968;2022-11-12T00:01:47;4.40;;;3.13;;
14346;SDS011;7257;52.158;9.968;2022-11-12T00:02:09;4.95;;;3.60;;
14346;SDS011;7257;52.158;9.968;2022-11-12T00:02:30;5.13;;;3.55;;
14346;SDS011;7257;52.158;9.968;2022-11-12T00:02:52;5.65;;;3.60;;
14346;SDS011;7257;52.158;9.968;2022-11-12T00:03:13;4.60;;;3.35;;
14346;SDS011;7257;52.158;9.968;2022-11-12T00:03:35;3.63;;;3.03;;
14346;SDS011;7257;52.158;9.968;2022-11-12T00:03:56;3.63;;;3.03;;
14346;SDS011;7257;52.158;9.968;2022-11-12T00:04:20;3.95;;;3.50;;
14346;SDS011;7257;52.158;9.968;2022-11-12T00:04:41;5.28;;;3.40;;
14346;SDS011;7257;52.158;9.968;2022-11-12T00:05:02;5.25;;;3.00;;
14346;SDS011;7257;52.158;9.968;2022-11-12T00:05:24;5.38;;;2.95;;
14346;SDS011;7257;52.158;9.968;2022-11-12T00:05:45;3.58;;;2.80;;
14346;SDS011;7257;52.158;9.968;2022-11-12T00:06:08;3.53;;;2.75;;
14346;SDS011;7257;52.158;9.968;2022-11-12T00:06:29;4.00;;;3.20;;
14346;SDS011;7257;52.158;9.968;2022-11-12T00:06:51;4.18;;;3.35;;
14346;SDS011;7257;52.158;9.968;2022-11-12T00:07:12;3.65;;;3.22;;
14346;SDS011;7257;52.158;9.968;2022-11-12T00:07:33;3.50;;;2.85;;
14346;SDS011;7257;52.158;9.968;2022-11-12T00:07:54;2.95;;;2.35;;
14346;SDS011;7257;52.158;9.968;2022-11-12T00:08:15;2.65;;;2.05;;
14346;SDS011;7257;52.158;9.968;2022-11-12T00:08:38;2.90;;;2.30;;
14346;SDS011;7257;52.158;9.968;2022-11-12T00:08:59;3.40;;;3.10;;
14346;SDS011;7257;52.158;9.968;2022-11-12T00:09:20;4.30;;;3.90;;
14346;SDS011;7257;52.158;9.968;2022-11-12T00:09:40;4.28;;;3.88;;
14346;SDS011;7257;52.158;9.968;2022-11-12T00:10:03;4.65;;;4.05;;
14346;SDS011;7257;52.158;9.968;2022-11-12T00:10:26;4.95;;;3.42;;
14346;SDS011;7257;52.158;9.968;2022-11-12T00:10:47;5.10;;;3.47;;
14346;SDS011;7257;52.158;9.968;2022-11-12T00:11:08;4.40;;;3.20;;
14346;SDS011;7257;52.158;9.968;2022-11-12T00:11:29;4.30;;;3.38;;
14346;SDS011;7257;52.158;9.968;2022-11-12T00:11:51;4.38;;;3.55;;
14346;SDS011;7257;52.158;9.968;2022-11-12T00:12:12;3.97;;;3.35;;
14346;SDS011;7257;52.158;9.968;2022-11-12T00:12:33;3.70;;;2.90;;
14346;SDS011;7257;52.158;9.968;2022-11-12T00:12:54;3.80;;;2.70;;
14346;SDS011;7257;52.158;9.968;2022-11-12T00:13:15;3.87;;;2.47;;
14346;SDS011;7257;52.158;9.968;2022-11-12T00:13:36;4.07;;;2.30;;
14346;SDS011;7257;52.158;9.968;2022-11-12T00:13:57;3.73;;;2.17;;
14346;SDS011;7257;52.158;9.968;2022-11-12T00:14:18;2.90;;;2.10;;
14346;SDS011;7257;52.158;9.968;2022-11-12T00:14:39;3.05;;;2.15;;
14346;SDS011;7257;52.158;9.968;2022-11-12T00:15:01;5.00;;;2.38;;
14346;SDS011;7257;52.158;9.968;2022-11-12T00:15:23;5.97;;;3.28;;
14346;SDS011;7257;52.158;9.968;2022-11-12T00:15:44;6.07;;;3.88;;
14346;SDS011;7257;52.158;9.968;2022-11-12T00:16:06;4.45;;;3.33;;
14346;SDS011;7257;52.158;9.968;2022-11-12T00:16:27;3.95;;;2.47;;
14346;SDS011;7257;52.158;9.968;2022-11-12T00:16:49;3.60;;;2.30;;
14346;SDS011;7257;52.158;9.968;2022-11-12T00:17:12;3.33;;;2.67;;
14346;SDS011;7257;52.158;9.968;2022-11-12T00:17:33;3.47;;;2.55;;
14346;SDS011;7257;52.158;9.968;2022-11-12T00:17:54;3.13;;;2.22;;
14346;SDS011;7257;52.158;9.968;2022-11-12T00:18:15;3.15;;;2.30;;
14346;SDS011;7257;52.158;9.968;2022-11-12T00:18:39;2.90;;;2.57;;
14346;SDS011;7257;52.158;9.968;2022-11-12T00:19:01;3.25;;;2.70;;
14346;SDS011;7257;52.158;9.968;2022-11-12T00:19:24;3.90;;;3.50;;
14346;SDS011;7257;52.158;9.968;2022-11-12T00:19:45;4.22;;;3.58;;
14346;SDS011;7257;52.158;9.968;2022-11-12T00:20:07;4.30;;;3.90;;
14346;SDS011;7257;52.158;9.968;2022-11-12T00:20:30;3.80;;;3.40;;
14346;SDS011;7257;52.158;9.968;2022-11-12T00:20:50;3.25;;;2.80;;
14346;SDS011;7257;52.158;9.968;2022-11-12T00:21:15;2.70;;;2.17;;
14346;SDS011;7257;52.158;9.968;2022-11-12T00:21:36;2.95;;;2.65;;
14346;SDS011;7257;52.158;9.968;2022-11-12T00:21:58;3.10;;;2.80;;
14346;SDS011;7257;52.158;9.968;2022-11-12T00:22:19;3.30;;;3.00;;
14346;SDS011;7257;52.158;9.968;2022-11-12T00:22:40;3.58;;;3.28;;
14346;SDS011;7257;52.158;9.968;2022-11-12T00:23:01;3.78;;;3.42;;
14346;SDS011;7257;52.158;9.968;2022-11-12T00:23:22;3.30;;;3.00;;
14346;SDS011;7257;52.158;9.968;2022-11-12T00:23:53;2.78;;;2.53;;
14346;SDS011;7257;52.158;9.968;2022-11-12T00:24:20;2.40;;;2.20;;
14346;SDS011;7257;52.158;9.968;2022-11-12T00:24:40;2.67;;;2.30;;
14346;SDS011;7257;52.158;9.968;2022-11-12T00:25:03;2.80;;;2.40;;
14346;SDS011;7257;52.158;9.968;2022-11-12T00:25:26;3.20;;;2.40;;
14346;SDS011;7257;52.158;9.968;2022-11-12T00:25:47;3.00;;;2.40;;
14346;SDS011;7257;52.158;9.968;2022-11-12T00:26:20;3.30;;;2.33;;
14346;SDS011;7257;52.158;9.968;2022-11-12T00:26:41;4.40;;;2.60;;
14346;SDS011;7257;52.158;9.968;2022-11-12T00:27:03;4.28;;;2.78;;
14346;SDS011;7257;52.158;9.968;2022-11-12T00:27:24;3.67;;;2.88;;
14346;SDS011;7257;52.158;9.968;2022-11-12T00:27:45;3.35;;;2.92;;
14346;SDS011;7257;52.158;9.968;2022-11-12T00:28:07;3.47;;;3.15;;
14346;SDS011;7257;52.158;9.968;2022-11-12T00:28:29;4.15;;;2.97;;
14346;SDS011;7257;52.158;9.968;2022-11-12T00:28:51;3.90;;;2.53;;
14346;SDS011;7257;52.158;9.968;2022-11-12T00:29:12;4.20;;;3.15;;
14346;SDS011;7257;52.158;9.968;2022-11-12T00:29:33;3.60;;;3.28;;
14346;SDS011;7257;52.158;9.968;2022-11-12T00:29:54;4.50;;;3.58;;
14346;SDS011;7257;52.158;9.968;2022-11-12T00:30:15;4.93;;;3.87;;
14346;SDS011;7257;52.158;9.968;2022-11-12T00:30:38;4.60;;;3.78;;
14346;SDS011;7257;52.158;9.968;2022-11-12T00:31:05;3.95;;;3.45;;
14346;SDS011;7257;52.158;9.968;2022-11-12T00:31:29;4.40;;;3.50;;
14346;SDS011;7257;52.158;9.968;2022-11-12T00:31:51;4.28;;;3.20;;
14346;SDS011;7257;52.158;9.968;2022-11-12T00:32:13;4.03;;;2.72;;
14346;SDS011;7257;52.158;9.968;2022-11-12T00:32:35;3.60;;;2.50;;
14346;SDS011;7257;52.158;9.968;2022-11-12T00:32:56;2.60;;;2.25;;
14346;SDS011;7257;52.158;9.968;2022-11-12T00:33:20;3.20;;;2.90;;
14346;SDS011;7257;52.158;9.968;2022-11-12T00:33:41;3.40;;;3.10;;
14346;SDS011;7257;52.158;9.968;2022-11-12T00:34:04;3.67;;;3.17;;
14346;SDS011;7257;52.158;9.968;2022-11-12T00:34:25;3.47;;;2.65;;
14346;SDS011;7257;52.158;9.968;2022-11-12T00:34:46;3.90;;;2.58;;
14346;SDS011;7257;52.158;9.968;2022-11-12T00:35:07;3.20;;;2.20;;
14346;SDS011;7257;52.158;9.968;2022-11-12T00:35:29;2.80;;;2.30;;
14346;SDS011;7257;52.158;9.968;2022-11-12T00:35:51;3.08;;;2.58;;
14346;SDS011;7257;52.158;9.968;2022-11-12T00:36:13;3.85;;;3.15;;
14346;SDS011;7257;52.158;9.968;2022-11-12T00:36:33;4.30;;;3.23;;
14346;SDS011;7257;52.158;9.968;2022-11-12T00:36:55;4.38;;;2.85;;
14346;SDS011;7257;52.158;9.968;2022-11-12T00:37:16;4.30;;;2.50;;
14346;SDS011;7257;52.158;9.968;2022-11-12T00:37:37;4.32;;;2.50;;
14346;SDS011;7257;52.158;9.968;2022-11-12T00:37:59;3.97;;;2.88;;
14346;SDS011;7257;52.158;9.968;2022-11-12T00:38:21;3.72;;;3.22;;
14346;SDS011;7257;52.158;9.968;2022-11-12T00:38:42;4.03;;;3.20;;
14346;SDS011;7257;52.158;9.968;2022-11-12T00:39:03;4.70;;;3.08;;
14346;SDS011;7257;52.158;9.968;2022-11-12T00:39:24;3.92;;;2.85;;
14346;SDS011;7257;52.158;9.968;2022-11-12T00:39:45;4.55;;;3.05;;
14346;SDS011;7257;52.158;9.968;2022-11-12T00:40:08;3.45;;;2.40;;
14346;SDS011;7257;52.158;9.968;2022-11-12T00:40:30;4.35;;;2.53;;
14346;SDS011;7257;52.158;9.968;2022-11-12T00:40:51;3.90;;;2.67;;
14346;SDS011;7257;52.158;9.968;2022-11-12T00:41:13;3.47;;;3.05;;
14346;SDS011;7257;52.158;9.968;2022-11-12T00:41:33;4.00;;;2.88;;
14346;SDS011;7257;52.158;9.968;2022-11-12T00:41:54;3.58;;;2.45;;
14346;SDS011;7257;52.158;9.968;2022-11-12T00:42:16;3.67;;;2.25;;
14346;SDS011;7257;52.158;9.968;2022-11-12T00:42:40;3.00;;;2.20;;
14346;SDS011;7257;52.158;9.968;2022-11-12T00:43:01;3.38;;;2.58;;
14346;SDS011;7257;52.158;9.968;2022-11-12T00:43:22;3.90;;;2.80;;
14346;SDS011;7257;52.158;9.968;2022-11-12T00:43:44;4.38;;;2.97;;
14346;SDS011;7257;52.158;9.968;2022-11-12T00:44:04;4.38;;;3.42;;
14346;SDS011;7257;52.158;9.968;2022-11-12T00:44:29;4.22;;;3.33;;
14346;SDS011;7257;52.158;9.968;2022-11-12T00:44:50;3.58;;;2.83;;
14346;SDS011;7257;52.158;9.968;2022-11-12T00:45:13;3.00;;;2.45;;
14346;SDS011;7257;52.158;9.968;2022-11-12T00:45:34;3.53;;;3.08;;
14346;SDS011;7257;52.158;9.968;2022-11-12T00:45:59;3.70;;;3.30;;
14346;SDS011;7257;52.158;9.968;2022-11-12T00:46:20;3.83;;;3.05;;
14346;SDS011;7257;52.158;9.968;2022-11-12T00:46:41;3.20;;;2.65;;
14346;SDS011;7257;52.158;9.968;2022-11-12T00:47:04;4.03;;;3.03;;
14346;SDS011;7257;52.158;9.968;2022-11-12T00:47:25;5.13;;;3.67;;
14346;SDS011;7257;52.158;9.968;2022-11-12T00:47:47;6.90;;;4.30;;
14346;SDS011;7257;52.158;9.968;2022-11-12T00:48:08;6.95;;;3.90;;
14346;SDS011;7257;52.158;9.968;2022-11-12T00:48:29;6.40;;;3.17;;
14346;SDS011;7257;52.158;9.968;2022-11-12T00:48:50;5.50;;;2.60;;
14346;SDS011;7257;52.158;9.968;2022-11-12T00:49:11;4.90;;;2.70;;
14346;SDS011;7257;52.158;9.968;2022-11-12T00:49:33;3.58;;;2.75;;
14346;SDS011;7257;52.158;9.968;2022-11-12T00:49:57;3.28;;;2.78;;
14346;SDS011;7257;52.158;9.968;2022-11-12T00:50:17;3.38;;;2.80;;
14346;SDS011;7257;52.158;9.968;2022-11-12T00:50:38;3.38;;;2.63;;
14346;SDS011;7257;52.158;9.968;2022-11-12T00:51:01;3.20;;;2.70;;
14346;SDS011;7257;52.158;9.968;2022-11-12T00:51:23;3.90;;;2.70;;
14346;SDS011;7257;52.158;9.968;2022-11-12T00:51:44;3.95;;;2.70;;
14346;SDS011;7257;52.158;9.968;2022-11-12T00:52:05;4.65;;;2.92;;
14346;SDS011;7257;52.158;9.968;2022-11-12T00:52:26;3.95;;;2.80;;
14346;SDS011;7257;52.158;9.968;2022-11-12T00:52:50;3.88;;;2.50;;
14346;SDS011;7257;52.158;9.968;2022-11-12T00:53:12;3.45;;;2.25;;
14346;SDS011;7257;52.158;9.968;2022-11-12T00:53:32;3.03;;;2.25;;
14346;SDS011;7257;52.158;9.968;2022-11-12T00:53:54;3.22;;;2.42;;
14346;SDS011;7257;52.158;9.968;2022-11-12T00:54:15;3.50;;;2.90;;
14346;SDS011;7257;52.158;9.968;2022-11-12T00:54:37;4.35;;;3.45;;
14346;SDS011;7257;52.158;9.968;2022-11-12T00:54:58;4.73;;;3.97;;
14346;SDS011;7257;52.158;9.968;2022-11-12T00:55:21;4.38;;;3.90;;
14346;SDS011;7257;52.158;9.968;2022-11-12T00:55:42;3.80;;;3.45;;
14346;SDS011;7257;52.158;9.968;2022-11-12T00:56:03;3.45;;;3.13;;
14346;SDS011;7257;52.158;9.968;2022-11-12T00:56:27;3.38;;;2.88;;
14346;SDS011;7257;52.158;9.968;2022-11-12T00:56:51;3.70;;;2.58;;
14346;SDS011;7257;52.158;9.968;2022-11-12T00:57:12;3.15;;;2.25;;
14346;SDS011;7257;52.158;9.968;2022-11-12T00:57:32;2.70;;;2.30;;
14346;SDS011;7257;52.158;9.968;2022-11-12T00:57:53;2.67;;;2.27;;
14346;SDS011;7257;52.158;9.968;2022-11-12T00:58:17;3.67;;;2.20;;
14346;SDS011;7257;52.158;9.968;2022-11-12T00:58:38;4.22;;;2.30;;
14346;SDS011;7257;52.158;9.968;2022-11-12T00:58:59;3.53;;;2.00;;
14346;SDS011;7257;52.158;9.968;2022-11-12T00:59:20;3.10;;;2.30;;
14346;SDS011;7257;52.158;9.968;2022-11-12T00:59:42;3.38;;;2.67;;
14346;SDS011;7257;52.158;9.968;2022-11-12T01:00:04;3.78;;;3.25;;
14346;SDS011;7257;52.158;9.968;2022-11-12T01:00:26;3.92;;;3.22;;
14346;SDS011;7257;52.158;9.968;2022-11-12T01:00:49;4.63;;;2.90;;
14346;SDS011;7257;52.158;9.968;2022-11-12T01:01:14;4.40;;;2.80;;
14346;SDS011;7257;52.158;9.968;2022-11-12T01:01:35;3.80;;;2.60;;
14346;SDS011;7257;52.158;9.968;2022-11-12T01:01:56;3.08;;;2.40;;
14346;SDS011;7257;52.158;9.968;2022-11-12T01:02:17;3.33;;;2.38;;
14346;SDS011;7257;52.158;9.968;2022-11-12T01:02:39;3.50;;;2.50;;
14346;SDS011;7257;52.158;9.968;2022-11-12T01:03:01;3.75;;;2.90;;
14346;SDS011;7257;52.158;9.968;2022-11-12T01:03:22;3.20;;;2.50;;
14346;SDS011;7257;52.158;9.968;2022-11-12T01:03:46;2.65;;;1.90;;
14346;SDS011;7257;52.158;9.968;2022-11-12T01:04:07;3.30;;;2.05;;
14346;SDS011;7257;52.158;9.968;2022-11-12T01:04:29;3.38;;;2.38;;
14346;SDS011;7257;52.158;9.968;2022-11-12T01:04:50;3.20;;;2.50;;
14346;SDS011;7257;52.158;9.968;2022-11-12T01:05:11;2.85;;;2.50;;
14346;SDS011;7257;52.158;9.968;2022-11-12T01:05:32;3.17;;;2.78;;
14346;SDS011;7257;52.158;9.968;2022-11-12T01:05:53;3.08;;;2.70;;
14346;SDS011;7257;52.158;9.968;2022-11-12T01:06:15;3.53;;;2.80;;
14346;SDS011;7257;52.158;9.968;2022-11-12T01:06:38;3.22;;;2.40;;
14346;SDS011;7257;52.158;9.968;2022-11-12T01:06:59;4.70;;;2.85;;
14346;SDS011;7257;52.158;9.968;2022-11-12T01:07:21;4.90;;;3.25;;
14346;SDS011;7257;52.158;9.968;2022-11-12T01:07:42;5.72;;;3.80;;
14346;SDS011;7257;52.158;9.968;2022-11-12T01:08:04;3.92;;;3.25;;
14346;SDS011;7257;52.158;9.968;2022-11-12T01:08:25;3.40;;;2.75;;
14346;SDS011;7257;52.158;9.968;2022-11-12T01:08:48;2.53;;;2.30;;
14346;SDS011;7257;52.158;9.968;2022-11-12T01:09:10;3.15;;;2.30;;
14346;SDS011;7257;52.158;9.968;2022-11-12T01:09:31;2.90;;;2.22;;
14346;SDS011;7257;52.158;9.968;2022-11-12T01:09:53;3.17;;;2.47;;
14346;SDS011;7257;52.158;9.968;2022-11-12T01:10:14;3.78;;;2.83;;
14346;SDS011;7257;52.158;9.968;2022-11-12T01:10:36;4.00;;;3.08;;
14346;SDS011;7257;52.158;9.968;2022-11-12T01:11:06;3.92;;;3.03;;
14346;SDS011;7257;52.158;9.968;2022-11-12T01:11:31;3.50;;;2.90;;
14346;SDS011;7257;52.158;9.968;2022-11-12T01:11:53;3.13;;;2.75;;
14346;SDS011;7257;52.158;9.968;2022-11-12T01:12:14;3.50;;;3.20;;
14346;SDS011;7257;52.158;9.968;2022-11-12T01:12:35;4.28;;;3.75;;
14346;SDS011;7257;52.158;9.968;2022-11-12T01:12:56;4.50;;;3.75;;
14346;SDS011;7257;52.158;9.968;2022-11-12T01:13:18;4.53;;;3.45;;
14346;SDS011;7257;52.158;9.968;2022-11-12T01:13:40;4.70;;;3.08;;
14346;SDS011;7257;52.158;9.968;2022-11-12T01:14:04;4.10;;;2.53;;
14346;SDS011;7257;52.158;9.968;2022-11-12T01:14:27;3.40;;;2.38;;
14346;SDS011;7257;52.158;9.968;2022-11-12T01:14:48;3.00;;;2.42;;
14346;SDS011;7257;52.158;9.968;2022-11-12T01:15:09;3.20;;;2.30;;
14346;SDS011;7257;52.158;9.968;2022-11-12T01:15:30;3.25;;;2.35;;
14346;SDS011;7257;52.158;9.968;2022-11-12T01:15:52;3.50;;;2.70;;
14346;SDS011;7257;52.158;9.968;2022-11-12T01:16:14;3.85;;;3.25;;
14346;SDS011;7257;52.158;9.968;2022-11-12T01:16:38;3.47;;;3.05;;
14346;SDS011;7257;52.158;9.968;2022-11-12T01:17:02;3.70;;;3.00;;
14346;SDS011;7257;52.158;9.968;2022-11-12T01:17:23;4.32;;;3.30;;
14346;SDS011;7257;52.158;9.968;2022-11-12T01:17:45;3.92;;;3.50;;
14346;SDS011;7257;52.158;9.968;2022-11-12T01:18:06;3.45;;;3.15;;
14346;SDS011;7257;52.158;9.968;2022-11-12T01:18:27;3.22;;;2.92;;
14346;SDS011;7257;52.158;9.968;2022-11-12T01:18:51;3.10;;;2.70;;
14346;SDS011;7257;52.158;9.968;2022-11-12T01:19:13;3.60;;;3.00;;
14346;SDS011;7257;52.158;9.968;2022-11-12T01:19:35;3.80;;;3.28;;
14346;SDS011;7257;52.158;9.968;2022-11-12T01:19:55;4.07;;;3.53;;
14346;SDS011;7257;52.158;9.968;2022-11-12T01:20:18;3.97;;;3.58;;
14346;SDS011;7257;52.158;9.968;2022-11-12T01:20:39;3.78;;;3.25;;
14346;SDS011;7257;52.158;9.968;2022-11-12T01:21:00;3.67;;;2.72;;
14346;SDS011;7257;52.158;9.968;2022-11-12T01:21:22;3.35;;;2.35;;
14346;SDS011;7257;52.158;9.968;2022-11-12T01:21:45;3.75;;;2.70;;
14346;SDS011;7257;52.158;9.968;2022-11-12T01:22:09;3.30;;;2.60;;
14346;SDS011;7257;52.158;9.968;2022-11-12T01:22:30;3.63;;;2.40;;
14346;SDS011;7257;52.158;9.968;2022-11-12T01:22:51;3.20;;;2.40;;
14346;SDS011;7257;52.158;9.968;2022-11-12T01:23:16;3.00;;;2.70;;
14346;SDS011;7257;52.158;9.968;2022-11-12T01:23:37;3.42;;;3.05;;
14346;SDS011;7257;52.158;9.968;2022-11-12T01:24:00;3.22;;;2.92;;
14346;SDS011;7257;52.158;9.968;2022-11-12T01:24:21;2.95;;;2.60;;
14346;SDS011;7257;52.158;9.968;2022-11-12T01:24:45;3.00;;;2.40;;
14346;SDS011;7257;52.158;9.968;2022-11-12T01:25:07;3.53;;;2.90;;
14346;SDS011;7257;52.158;9.968;2022-11-12T01:25:28;3.75;;;3.20;;
14346;SDS011;7257;52.158;9.968;2022-11-12T01:25:51;4.32;;;3.83;;
14346;SDS011;7257;52.158;9.968;2022-11-12T01:26:12;3.60;;;3.22;;
14346;SDS011;7257;52.158;9.968;2022-11-12T01:26:36;3.47;;;2.63;;
14346;SDS011;7257;52.158;9.968;2022-11-12T01:26:57;3.30;;;2.60;;
14346;SDS011;7257;52.158;9.968;2022-11-12T01:27:18;4.10;;;3.33;;
14346;SDS011;7257;52.158;9.968;2022-11-12T01:27:39;3.90;;;3.28;;
14346;SDS011;7257;52.158;9.968;2022-11-12T01:28:01;3.75;;;2.97;;
14346;SDS011;7257;52.158;9.968;2022-11-12T01:28:22;4.15;;;3.08;;
14346;SDS011;7257;52.158;9.968;2022-11-12T01:28:43;4.50;;;3.30;;
14346;SDS011;7257;52.158;9.968;2022-11-12T01:29:04;4.22;;;3.35;;
14346;SDS011;7257;52.158;9.968;2022-11-12T01:29:25;3.63;;;2.83;;
14346;SDS011;7257;52.158;9.968;2022-11-12T01:29:47;2.85;;;2.38;;
14346;SDS011;7257;52.158;9.968;2022-11-12T01:30:09;2.75;;;2.40;;
14346;SDS011;7257;52.158;9.968;2022-11-12T01:30:36;3.13;;;2.83;;
14346;SDS011;7257;52.158;9.968;2022-11-12T01:31:11;3.90;;;3.50;;
14346;SDS011;7257;52.158;9.968;2022-11-12T01:31:34;4.93;;;3.80;;
14346;SDS011;7257;52.158;9.968;2022-11-12T01:31:57;4.70;;;3.55;;
14346;SDS011;7257;52.158;9.968;2022-11-12T01:32:21;4.72;;;3.58;;
14346;SDS011;7257;52.158;9.968;2022-11-12T01:32:42;4.53;;;3.72;;
14346;SDS011;7257;52.158;9.968;2022-11-12T01:33:03;3.90;;;3.50;;
14346;SDS011;7257;52.158;9.968;2022-11-12T01:33:25;3.97;;;3.60;;
14346;SDS011;7257;52.158;9.968;2022-11-12T01:33:47;3.67;;;3.33;;
14346;SDS011;7257;52.158;9.968;2022-11-12T01:34:09;2.88;;;2.45;;
14346;SDS011;7257;52.158;9.968;2022-11-12T01:34:36;3.47;;;2.60;;
14346;SDS011;7257;52.158;9.968;2022-11-12T01:34:57;4.05;;;2.60;;
14346;SDS011;7257;52.158;9.968;2022-11-12T01:35:20;4.22;;;2.63;;
14346;SDS011;7257;52.158;9.968;2022-11-12T01:35:41;4.50;;;2.70;;
14346;SDS011;7257;52.158;9.968;2022-11-12T01:36:02;3.55;;;2.58;;
14346;SDS011;7257;52.158;9.968;2022-11-12T01:36:23;3.92;;;2.50;;
14346;SDS011;7257;52.158;9.968;2022-11-12T01:36:48;4.40;;;3.33;;
14346;SDS011;7257;52.158;9.968;2022-11-12T01:37:13;4.53;;;3.72;;
14346;SDS011;7257;52.158;9.968;2022-11-12T01:37:37;4.53;;;3.10;;
14346;SDS011;7257;52.158;9.968;2022-11-12T01:38:01;4.80;;;2.70;;
14346;SDS011;7257;52.158;9.968;2022-11-12T01:38:22;5.13;;;2.63;;
14346;SDS011;7257;52.158;9.968;2022-11-12T01:38:44;4.60;;;2.70;;
14346;SDS011;7257;52.158;9.968;2022-11-12T01:39:08;4.70;;;3.05;;
14346;SDS011;7257;52.158;9.968;2022-11-12T01:39:29;4.40;;;3.38;;
14346;SDS011;7257;52.158;9.968;2022-11-12T01:39:53;4.63;;;4.05;;
14346;SDS011;7257;52.158;9.968;2022-11-12T01:40:15;4.15;;;3.75;;
14346;SDS011;7257;52.158;9.968;2022-11-12T01:40:36;4.47;;;3.35;;
14346;SDS011;7257;52.158;9.968;2022-11-12T01:40:58;4.63;;;3.35;;
14346;SDS011;7257;52.158;9.968;2022-11-12T01:41:23;5.03;;;3.28;;
14346;SDS011;7257;52.158;9.968;2022-11-12T01:41:46;4.50;;;2.97;;
14346;SDS011;7257;52.158;9.968;2022-11-12T01:42:07;4.22;;;2.70;;
14346;SDS011;7257;52.158;9.968;2022-11-12T01:42:29;3.60;;;2.50;;
14346;SDS011;7257;52.158;9.968;2022-11-12T01:42:53;3.58;;;2.60;;
14346;SDS011;7257;52.158;9.968;2022-11-12T01:43:15;4.38;;;3.50;;
14346;SDS011;7257;52.158;9.968;2022-11-12T01:43:38;4.25;;;3.78;;
14346;SDS011;7257;52.158;9.968;2022-11-12T01:44:09;5.90;;;3.38;;
14346;SDS011;7257;52.158;9.968;2022-11-12T01:44:36;6.47;;;3.40;;
14346;SDS011;7257;52.158;9.968;2022-11-12T01:45:08;4.30;;;3.20;;
14346;SDS011;7257;52.158;9.968;2022-11-12T01:45:35;3.85;;;3.00;;
14346;SDS011;7257;52.158;9.968;2022-11-12T01:46:00;4.82;;;2.90;;
14346;SDS011;7257;52.158;9.968;2022-11-12T01:46:26;4.70;;;3.00;;
14346;SDS011;7257;52.158;9.968;2022-11-12T01:46:53;3.60;;;3.30;;
14346;SDS011;7257;52.158;9.968;2022-11-12T01:47:18;5.80;;;4.07;;
14346;SDS011;7257;52.158;9.968;2022-11-12T01:47:43;6.70;;;4.30;;
14346;SDS011;7257;52.158;9.968;2022-11-12T01:48:09;4.95;;;3.70;;
14346;SDS011;7257;52.158;9.968;2022-11-12T01:48:47;4.97;;;3.00;;
14346;SDS011;7257;52.158;9.968;2022-11-12T01:49:12;5.38;;;3.00;;
14346;SDS011;7257;52.158;9.968;2022-11-12T01:49:55;5.93;;;3.40;;
14346;SDS011;7257;52.158;9.968;2022-11-12T01:50:28;5.53;;;3.30;;
14346;SDS011;7257;52.158;9.968;2022-11-12T01:50:54;3.75;;;3.28;;
14346;SDS011;7257;52.158;9.968;2022-11-12T01:51:19;3.35;;;3.00;;
14346;SDS011;7257;52.158;9.968;2022-11-12T01:51:47;3.95;;;3.28;;
14346;SDS011;7257;52.158;9.968;2022-11-12T01:52:30;4.60;;;3.55;;
14346;SDS011;7257;52.158;9.968;2022-11-12T01:53:04;4.45;;;3.65;;
14346;SDS011;7257;52.158;9.968;2022-11-12T01:53:30;5.85;;;3.58;;
14346;SDS011;7257;52.158;9.968;2022-11-12T01:53:58;5.40;;;3.47;;
14346;SDS011;7257;52.158;9.968;2022-11-12T01:54:23;4.18;;;2.95;;
14346;SDS011;7257;52.158;9.968;2022-11-12T01:54:45;3.80;;;2.75;;
14346;SDS011;7257;52.158;9.968;2022-11-12T01:55:12;4.30;;;3.65;;
14346;SDS011;7257;52.158;9.968;2022-11-12T01:55:42;5.03;;;3.83;;
14346;SDS011;7257;52.158;9.968;2022-11-12T01:56:19;5.53;;;3.53;;
14346;SDS011;7257;52.158;9.968;2022-11-12T01:56:54;5.38;;;4.88;;
14346;SDS011;7257;52.158;9.968;2022-11-12T01:57:20;6.43;;;5.53;;
14346;SDS011;7257;52.158;9.968;2022-11-12T01:57:44;4.78;;;3.50;;
14346;SDS011;7257;52.158;9.968;2022-11-12T01:58:16;3.72;;;2.78;;
14346;SDS011;7257;52.158;9.968;2022-11-12T01:58:41;3.78;;;2.90;;
14346;SDS011;7257;52.158;9.968;2022-11-12T01:59:04;4.80;;;3.05;;
14346;SDS011;7257;52.158;9.968;2022-11-12T01:59:33;4.18;;;2.90;;
14346;SDS011;7257;52.158;9.968;2022-11-12T02:00:02;3.30;;;3.00;;
14346;SDS011;7257;52.158;9.968;2022-11-12T02:00:29;3.42;;;3.13;;
14346;SDS011;7257;52.158;9.968;2022-11-12T02:00:50;3.03;;;2.60;;
14346;SDS011;7257;52.158;9.968;2022-11-12T02:01:11;3.85;;;2.65;;
14346;SDS011;7257;52.158;9.968;2022-11-12T02:01:32;3.83;;;2.53;;
14346;SDS011;7257;52.158;9.968;2022-11-12T02:01:55;3.80;;;2.60;;
14346;SDS011;7257;52.158;9.968;2022-11-12T02:02:18;3.28;;;2.88;;
14346;SDS011;7257;52.158;9.968;2022-11-12T02:02:40;4.18;;;3.53;;
14346;SDS011;7257;52.158;9.968;2022-11-12T02:03:08;4.97;;;3.40;;
14346;SDS011;7257;52.158;9.968;2022-11-12T02:03:33;4.32;;;3.15;;
14346;SDS011;7257;52.158;9.968;2022-11-12T02:03:54;3.63;;;3.30;;
14346;SDS011;7257;52.158;9.968;2022-11-12T02:04:16;4.20;;;3.80;;
14346;SDS011;7257;52.158;9.968;2022-11-12T02:04:37;3.85;;;3.47;;
14346;SDS011;7257;52.158;9.968;2022-11-12T02:05:02;2.90;;;2.60;;
14346;SDS011;7257;52.158;9.968;2022-11-12T02:05:26;3.80;;;2.90;;
14346;SDS011;7257;52.158;9.968;2022-11-12T02:05:50;3.97;;;2.88;;
14346;SDS011;7257;52.158;9.968;2022-11-12T02:06:14;3.42;;;3.13;;
14346;SDS011;7257;52.158;9.968;2022-11-12T02:06:37;3.90;;;3.50;;
14346;SDS011;7257;52.158;9.968;2022-11-12T02:06:59;4.18;;;3.03;;
14346;SDS011;7257;52.158;9.968;2022-11-12T02:07:22;4.22;;;2.80;;
14346;SDS011;7257;52.158;9.968;2022-11-12T02:07:45;4.43;;;3.10;;
14346;SDS011;7257;52.158;9.968;2022-11-12T02:08:08;4.03;;;3.35;;
14346;SDS011;7257;52.158;9.968;2022-11-12T02:08:32;3.20;;;2.90;;
14346;SDS011;7257;52.158;9.968;2022-11-12T02:08:54;3.33;;;2.83;;
14346;SDS011;7257;52.158;9.968;2022-11-12T02:09:15;4.05;;;2.92;;
14346;SDS011;7257;52.158;9.968;2022-11-12T02:09:37;4.80;;;3.30;;
14346;SDS011;7257;52.158;9.968;2022-11-12T02:10:01;5.18;;;3.28;;
14346;SDS011;7257;52.158;9.968;2022-11-12T02:10:24;5.50;;;3.30;;
14346;SDS011;7257;52.158;9.968;2022-11-12T02:10:46;4.72;;;2.90;;
14346;SDS011;7257;52.158;9.968;2022-11-12T02:11:11;4.90;;;2.65;;
14346;SDS011;7257;52.158;9.968;2022-11-12T02:11:36;4.00;;;2.80;;
14346;SDS011;7257;52.158;9.968;2022-11-12T02:12:01;3.85;;;2.92;;
14346;SDS011;7257;52.158;9.968;2022-11-12T02:12:22;3.72;;;2.70;;
14346;SDS011;7257;52.158;9.968;2022-11-12T02:13:01;5.40;;;2.97;;
14346;SDS011;7257;52.158;9.968;2022-11-12T02:13:41;4.32;;;2.80;;
14346;SDS011;7257;52.158;9.968;2022-11-12T02:14:20;4.00;;;2.90;;
14346;SDS011;7257;52.158;9.968;2022-11-12T02:14:41;3.92;;;3.53;;
14346;SDS011;7257;52.158;9.968;2022-11-12T02:15:02;4.43;;;4.00;;
14346;SDS011;7257;52.158;9.968;2022-11-12T02:15:24;4.50;;;4.05;;
14346;SDS011;7257;52.158;9.968;2022-11-12T02:15:45;4.18;;;3.53;;
14346;SDS011;7257;52.158;9.968;2022-11-12T02:16:06;3.35;;;2.95;;
14346;SDS011;7257;52.158;9.968;2022-11-12T02:16:31;3.60;;;2.70;;
14346;SDS011;7257;52.158;9.968;2022-11-12T02:16:56;3.50;;;2.70;;
14346;SDS011;7257;52.158;9.968;2022-11-12T02:17:19;4.20;;;3.00;;
14346;SDS011;7257;52.158;9.968;2022-11-12T02:17:40;3.85;;;3.30;;
14346;SDS011;7257;52.158;9.968;2022-11-12T02:18:02;3.80;;;3.40;;
14346;SDS011;7257;52.158;9.968;2022-11-12T02:18:23;4.25;;;3.85;;
14346;SDS011;7257;52.158;9.968;2022-11-12T02:18:45;4.13;;;3.53;;
14346;SDS011;7257;52.158;9.968;2022-11-12T02:19:06;3.40;;;3.05;;
14346;SDS011;7257;52.158;9.968;2022-11-12T02:19:29;3.42;;;2.88;;
14346;SDS011;7257;52.158;9.968;2022-11-12T02:19:50;4.10;;;3.10;;
14346;SDS011;7257;52.158;9.968;2022-11-12T02:20:12;4.35;;;3.17;;